Terminal Aerodrome Forecast
Issued by NWS

Home | Current Version | Previous Version | Graphics & Text | Print | Product List | Glossary On
Versions: 1 2 3 4 5 6 7 8 9 10 11 12 13 14 15
000
FTUS43 KGRB 271900 AAB
TAFCWA
TAF AMD
KCWA 271959Z 2720/2818 36014G20KT P6SM SCT030 BKN050
     FM272300 36014G20KT P6SM SCT015 BKN025
     FM280100 36010KT P6SM SCT030
     FM280300 35008KT P6SM SKC
     FM281600 35010KT P6SM SCT040=

USA.gov is the U.S. government's official web portal to all federal, state and local government web resources and services.